Time;durP1;ratioP1;P1;durP2;ratioP2;P2;SDS_P1;SDS_P2;PMS_P1;PMS_P2;Temp;Humidity;BMP_temperature;BMP_pressure;BME280_temperature;BME280_humidity;BME280_pressure;Samples;Min_cycle;Max_cycle;Signal;HPM_P1;HPM_P2
2022/01/14 09:38:34;;;;;;;;;30.00;25.75;;;;;;;;5150032;27;1478321;-70
2022/01/14 09:41:00;;;;;;;;;38.00;30.25;;;;;;;;5185946;27;22769;-70
2022/01/14 09:43:25;;;;;;;;;27.33;23.33;;;;;;;;5185672;27;11381;-70
2022/01/14 09:45:53;;;;;;;;;30.00;28.33;;;;;;;;5187862;27;12446;-70
2022/01/14 09:48:20;;;;;;;;;39.33;31.00;;;;;;;;5187594;27;14124;-69
2022/01/14 09:50:45;;;;;;;;;28.00;26.67;;;;;;;;5185884;27;12289;-70
2022/01/14 09:53:13;;;;;;;;;25.67;22.00;;;;;;;;5187500;27;13448;-70
2022/01/14 09:55:39;;;;;;;;;30.00;30.00;;;;;;;;5187609;27;11488;-70
2022/01/14 09:58:04;;;;;;;;;31.00;31.00;;;;;;;;5185974;27;12253;-69
2022/01/14 10:00:29;;;;;;;;;31.33;28.67;;;;;;;;5188007;27;8786;-68
2022/01/14 10:02:55;;;;;;;;;26.67;25.67;;;;;;;;5186958;27;13956;-69
2022/01/14 10:05:36;;;;;;;;;27.33;27.33;;;;;;;;5188913;27;12238;-69
2022/01/14 10:08:08;;;;;;;;;24.00;23.33;;;;;;;;5187312;27;11595;-69
2022/01/14 10:10:36;;;;;;;;;29.67;26.00;;;;;;;;5184318;27;10497;-69
2022/01/14 10:13:11;;;;;;;;;33.33;23.33;;;;;;;;5186904;27;11724;-73
2022/01/14 10:15:44;;;;;;;;;32.33;26.00;;;;;;;;5177853;27;13373;-73
2022/01/14 10:18:09;;;;;;;;;25.33;20.67;;;;;;;;5176668;27;11750;-73
2022/01/14 10:20:36;;;;;;;;;26.67;25.33;;;;;;;;5177823;27;13251;-72
2022/01/14 10:23:01;;;;;;;;;25.00;24.00;;;;;;;;5177102;27;11495;-70
2022/01/14 10:25:26;;;;;;;;;24.33;23.67;;;;;;;;5177259;27;11370;-69
2022/01/14 10:27:52;;;;;;;;;27.00;22.33;;;;;;;;5177621;27;11829;-70
2022/01/14 10:30:23;;;;;;;;;25.00;25.00;;;;;;;;5177472;27;12788;-70
2022/01/14 10:32:55;;;;;;;;;30.67;26.00;;;;;;;;5177103;27;11642;-71
2022/01/14 10:35:22;;;;;;;;;30.67;28.00;;;;;;;;5177457;27;12280;-71
2022/01/14 10:37:47;;;;;;;;;31.00;26.33;;;;;;;;5178507;27;8788;-70
2022/01/14 10:40:16;;;;;;;;;31.00;27.00;;;;;;;;5188940;27;11612;-70
2022/01/14 10:42:42;;;;;;;;;20.33;20.33;;;;;;;;5190574;27;9427;-68
2022/01/14 10:45:22;;;;;;;;;26.33;22.33;;;;;;;;5187022;27;13349;-69
2022/01/14 10:47:54;;;;;;;;;31.33;26.00;;;;;;;;5167180;27;11484;-69
2022/01/14 10:50:25;;;;;;;;;22.00;19.33;;;;;;;;5171408;27;15083;-69
2022/01/14 10:52:50;;;;;;;;;23.00;21.33;;;;;;;;5172600;27;13360;-70
2022/01/14 10:55:26;;;;;;;;;24.00;22.00;;;;;;;;5170718;27;11264;-70
2022/01/14 10:57:52;;;;;;;;;30.67;24.33;;;;;;;;5172875;27;12170;-70
2022/01/14 11:00:21;;;;;;;;;28.00;22.00;;;;;;;;5170194;27;13264;-69
2022/01/14 11:02:48;;;;;;;;;23.33;21.33;;;;;;;;5142527;27;13373;-70
2022/01/14 11:05:14;;;;;;;;;24.00;19.00;;;;;;;;5162429;27;11654;-70
2022/01/14 11:07:40;;;;;;;;;24.67;22.00;;;;;;;;5165041;27;12267;-70
2022/01/14 11:10:20;;;;;;;;;24.33;21.33;;;;;;;;5171616;27;12023;-70
2022/01/14 11:12:46;;;;;;;;;20.67;19.00;;;;;;;;5170685;27;10669;-70
2022/01/14 11:15:12;;;;;;;;;16.00;15.00;;;;;;;;5170354;27;12327;-70
2022/01/14 11:17:38;;;;;;;;;18.50;17.00;;;;;;;;5150617;27;14157;-69
2022/01/14 11:20:04;;;;;;;;;18.75;17.25;;;;;;;;5172268;27;10600;-70
2022/01/14 11:25:14;;;;;;;;;17.75;16.75;;;;;;;;5172473;27;12222;-70
2022/01/14 11:27:41;;;;;;;;;17.50;13.00;;;;;;;;5171829;27;11629;-71
2022/01/14 11:30:12;;;;;;;;;17.25;16.75;;;;;;;;5170481;27;10500;-70
2022/01/14 11:32:53;;;;;;;;;20.25;15.50;;;;;;;;5173221;27;11477;-69
2022/01/14 11:35:20;;;;;;;;;19.25;16.00;;;;;;;;5169229;27;13727;-70
2022/01/14 11:37:46;;;;;;;;;18.00;15.75;;;;;;;;5169543;27;14043;-69
2022/01/14 11:40:12;;;;;;;;;19.25;16.75;;;;;;;;5169834;27;11464;-70
2022/01/14 11:42:39;;;;;;;;;20.00;18.00;;;;;;;;5173470;27;10659;-69
2022/01/14 11:45:06;;;;;;;;;18.25;15.50;;;;;;;;5169966;27;13463;-69
2022/01/14 11:47:42;;;;;;;;;17.75;16.00;;;;;;;;5171543;27;13575;-71
2022/01/14 11:50:27;;;;;;;;;14.25;14.00;;;;;;;;5171624;27;11596;-70
2022/01/14 11:52:53;;;;;;;;;22.50;18.50;;;;;;;;5172289;27;10619;-70
2022/01/14 11:55:21;;;;;;;;;19.00;18.50;;;;;;;;5172730;27;13211;-69
2022/01/14 11:57:46;;;;;;;;;22.25;18.00;;;;;;;;5151760;27;10669;-70
2022/01/14 12:00:27;;;;;;;;;19.00;16.75;;;;;;;;5169282;27;13317;-69
2022/01/14 12:02:53;;;;;;;;;17.25;16.75;;;;;;;;5177054;27;13302;-69
2022/01/14 12:05:20;;;;;;;;;23.25;20.00;;;;;;;;5173331;27;11365;-69
2022/01/14 12:08:01;;;;;;;;;20.00;19.00;;;;;;;;5169004;27;13937;-69
2022/01/14 12:10:33;;;;;;;;;20.50;18.00;;;;;;;;5170500;27;11670;-72
2022/01/14 12:13:21;;;;;;;;;18.75;18.25;;;;;;;;5157082;27;11607;-71
2022/01/14 12:15:55;;;;;;;;;19.75;19.25;;;;;;;;5180046;27;14605;-68
2022/01/14 12:18:40;;;;;;;;;18.00;17.25;;;;;;;;5180449;27;11441;-73
2022/01/14 12:21:05;;;;;;;;;20.75;19.00;;;;;;;;5179174;27;11439;-72
2022/01/14 12:23:31;;;;;;;;;20.75;20.75;;;;;;;;5180213;27;13187;-71
2022/01/14 12:26:11;;;;;;;;;22.00;20.50;;;;;;;;5180157;27;10260;-72
2022/01/14 12:28:36;;;;;;;;;26.00;20.00;;;;;;;;5157430;27;12075;-71
2022/01/14 12:31:03;;;;;;;;;21.50;20.50;;;;;;;;5181473;27;13251;-71
2022/01/14 12:33:38;;;;;;;;;23.00;20.00;;;;;;;;5181885;27;11623;-72
2022/01/14 12:36:13;;;;;;;;;18.75;16.50;;;;;;;;5162436;27;11660;-72
2022/01/14 12:38:39;;;;;;;;;19.25;19.00;;;;;;;;5160151;22;14999;-71
2022/01/14 12:41:12;;;;;;;;;21.00;20.00;;;;;;;;5138297;27;11636;-72
2022/01/14 12:43:45;;;;;;;;;19.25;19.25;;;;;;;;5140429;27;12269;-71
2022/01/14 12:46:24;;;;;;;;;20.00;20.00;;;;;;;;5141424;27;13353;-71
2022/01/14 12:48:56;;;;;;;;;25.50;20.50;;;;;;;;5140126;27;13464;-73
2022/01/14 12:51:22;;;;;;;;;21.00;19.25;;;;;;;;5141254;27;11692;-73
2022/01/14 12:53:52;;;;;;;;;14.25;13.25;;;;;;;;5140016;27;12198;-70
2022/01/14 12:56:19;;;;;;;;;26.50;20.50;;;;;;;;5122894;27;12514;-72
2022/01/14 12:58:58;;;;;;;;;19.50;19.50;;;;;;;;5123767;27;13365;-69
2022/01/14 13:01:26;;;;;;;;;20.75;16.50;;;;;;;;5129173;27;11491;-69
2022/01/14 13:03:53;;;;;;;;;19.75;19.25;;;;;;;;5129058;27;12375;-70
2022/01/14 13:06:18;;;;;;;;;22.00;17.25;;;;;;;;5109705;27;13679;-71
2022/01/14 13:08:52;;;;;;;;;20.25;16.00;;;;;;;;5129025;27;12554;-71
2022/01/14 13:11:17;;;;;;;;;19.25;17.00;;;;;;;;5127910;27;11447;-70
2022/01/14 13:13:45;;;;;;;;;18.25;17.25;;;;;;;;5129206;27;12215;-72
2022/01/14 13:16:10;;;;;;;;;19.50;19.50;;;;;;;;5128735;27;11444;-70
2022/01/14 13:18:45;;;;;;;;;19.00;15.50;;;;;;;;5102961;28;13369;-74
2022/01/14 13:21:10;;;;;;;;;14.75;14.00;;;;;;;;5120158;28;10129;-77
2022/01/14 13:23:36;;;;;;;;;22.00;18.75;;;;;;;;5119102;28;11936;-75
2022/01/14 13:26:01;;;;;;;;;14.75;14.00;;;;;;;;5119996;28;13208;-78
2022/01/14 13:28:27;;;;;;;;;13.00;11.75;;;;;;;;5118984;28;13453;-77
2022/01/14 13:30:52;;;;;;;;;16.50;15.75;;;;;;;;5101376;28;12101;-77
2022/01/14 13:33:18;;;;;;;;;16.50;16.50;;;;;;;;5120328;28;10349;-76
2022/01/14 13:35:46;;;;;;;;;16.00;15.25;;;;;;;;5120308;28;8812;-75
2022/01/14 13:38:13;;;;;;;;;23.50;18.25;;;;;;;;5119631;28;10462;-75
2022/01/14 13:40:57;;;;;;;;;14.75;14.25;;;;;;;;5120165;28;12562;-74
2022/01/14 13:43:25;;;;;;;;;14.00;14.00;;;;;;;;5134116;27;12711;-74
2022/01/14 13:45:52;;;;;;;;;15.75;13.00;;;;;;;;5140561;27;11472;-73
2022/01/14 13:48:26;;;;;;;;;8.50;5.00;;;;;;;;5139673;27;11447;-72
2022/01/14 13:50:56;;;;;;;;;14.25;12.75;;;;;;;;5139522;27;23550;-74
2022/01/14 13:53:27;;;;;;;;;16.00;13.00;;;;;;;;5139671;27;22500;-73
2022/01/14 13:55:54;;;;;;;;;14.25;14.25;;;;;;;;5139845;27;13144;-72
2022/01/14 13:58:27;;;;;;;;;12.00;10.00;;;;;;;;5140361;27;11456;-73
2022/01/14 14:00:56;;;;;;;;;19.75;15.75;;;;;;;;5120989;27;12149;-73
2022/01/14 14:03:36;;;;;;;;;16.00;16.00;;;;;;;;5140357;27;11433;-74
2022/01/14 14:06:08;;;;;;;;;16.75;15.25;;;;;;;;5140369;27;12727;-76
2022/01/14 14:17:13;;;;;;;;;12.00;12.00;;;;;;;;5139318;27;11439;-73
2022/01/14 14:19:44;;;;;;;;;12.25;12.25;;;;;;;;5136804;27;11561;-72
2022/01/14 14:22:18;;;;;;;;;16.50;12.00;;;;;;;;5128494;27;11476;-72
2022/01/14 14:24:55;;;;;;;;;16.50;12.50;;;;;;;;5112187;27;13629;-71
2022/01/14 14:27:20;;;;;;;;;12.25;10.50;;;;;;;;5137459;27;11495;-71
2022/01/14 14:29:50;;;;;;;;;12.50;12.00;;;;;;;;5133057;27;11494;-73
2022/01/14 14:32:17;;;;;;;;;11.00;9.50;;;;;;;;5137242;27;10760;-72
2022/01/14 14:34:42;;;;;;;;;12.25;10.00;;;;;;;;5124278;27;23641;-72
2022/01/14 14:37:08;;;;;;;;;11.75;10.50;;;;;;;;5123642;27;22037;-72
2022/01/14 14:39:34;;;;;;;;;13.00;9.75;;;;;;;;5143618;27;11339;-76
2022/01/14 14:41:59;;;;;;;;;12.75;10.00;;;;;;;;5142386;27;21453;-74
2022/01/14 14:44:24;;;;;;;;;13.50;12.00;;;;;;;;5142892;27;21542;-74
2022/01/14 14:46:50;;;;;;;;;10.25;10.00;;;;;;;;5142672;27;10345;-73
2022/01/14 14:49:15;;;;;;;;;11.00;11.00;;;;;;;;5142889;27;10688;-74
2022/01/14 14:51:40;;;;;;;;;12.50;10.75;;;;;;;;5142675;27;11918;-74
2022/01/14 14:54:06;;;;;;;;;11.50;10.00;;;;;;;;5124141;27;13174;-74
2022/01/14 14:56:31;;;;;;;;;10.50;9.50;;;;;;;;5123866;27;11902;-74
2022/01/14 14:58:56;;;;;;;;;13.50;10.50;;;;;;;;5142233;27;21390;-75
2022/01/14 15:01:22;;;;;;;;;11.50;10.50;;;;;;;;5141808;27;21820;-73
2022/01/14 15:03:47;;;;;;;;;14.50;10.75;;;;;;;;5142559;27;8888;-73
2022/01/14 15:06:13;;;;;;;;;13.75;11.00;;;;;;;;5142313;27;11384;-72
2022/01/14 15:08:38;;;;;;;;;13.75;10.25;;;;;;;;5120185;27;12466;-74
2022/01/14 15:11:03;;;;;;;;;15.00;12.00;;;;;;;;5141976;27;8842;-73
2022/01/14 15:13:29;;;;;;;;;15.00;13.50;;;;;;;;5123571;27;13202;-73
2022/01/14 15:18:21;;;;;;;;;12.50;12.50;;;;;;;;5142340;27;11515;-73
2022/01/14 15:20:46;;;;;;;;;14.50;13.50;;;;;;;;5142687;27;11527;-72
2022/01/14 15:23:12;;;;;;;;;11.00;9.00;;;;;;;;5142662;27;8947;-72
2022/01/14 15:25:38;;;;;;;;;19.50;17.00;;;;;;;;5141912;27;21788;-72
2022/01/14 15:28:04;;;;;;;;;17.25;15.50;;;;;;;;5141775;27;21623;-73
2022/01/14 15:30:31;;;;;;;;;13.00;11.50;;;;;;;;5142083;27;11571;-70
2022/01/14 15:32:57;;;;;;;;;20.00;14.75;;;;;;;;5142597;27;11445;-72
2022/01/14 15:35:23;;;;;;;;;14.75;14.00;;;;;;;;5142358;27;14957;-71
2022/01/14 15:37:48;;;;;;;;;14.75;14.50;;;;;;;;5141099;27;13284;-72
2022/01/14 15:40:19;;;;;;;;;13.50;11.50;;;;;;;;5123758;27;8834;-72
2022/01/14 15:42:44;;;;;;;;;14.00;14.00;;;;;;;;5142327;27;11531;-72
2022/01/14 15:45:10;;;;;;;;;14.25;14.25;;;;;;;;5142098;27;11483;-73
2022/01/14 15:47:36;;;;;;;;;16.50;14.75;;;;;;;;5141811;27;8974;-73
2022/01/14 15:50:03;;;;;;;;;15.25;13.50;;;;;;;;5141975;27;11769;-73
2022/01/14 15:52:28;;;;;;;;;17.75;13.00;;;;;;;;5141304;27;11517;-73
2022/01/14 15:54:53;;;;;;;;;17.50;15.25;;;;;;;;5141782;27;12199;-71
2022/01/14 15:57:19;;;;;;;;;20.00;14.25;;;;;;;;5141748;27;10360;-73
2022/01/14 15:59:44;;;;;;;;;16.25;14.00;;;;;;;;5141594;27;12224;-71
2022/01/14 16:02:10;;;;;;;;;21.75;17.50;;;;;;;;5141545;27;13386;-71
2022/01/14 16:04:38;;;;;;;;;10.00;10.00;;;;;;;;5141318;27;13530;-74
2022/01/14 16:07:05;;;;;;;;;17.00;14.25;;;;;;;;5122500;27;13733;-70
2022/01/14 16:09:30;;;;;;;;;16.75;16.75;;;;;;;;5141084;27;11457;-73
2022/01/14 16:11:58;;;;;;;;;14.00;9.75;;;;;;;;5141501;27;11437;-73
2022/01/14 16:14:30;;;;;;;;;20.50;18.00;;;;;;;;5141201;27;21592;-71
2022/01/14 16:16:56;;;;;;;;;21.75;16.00;;;;;;;;5126625;27;23040;-69
2022/01/14 16:19:21;;;;;;;;;21.00;17.75;;;;;;;;5120504;28;11465;-72
2022/01/14 16:21:46;;;;;;;;;24.25;20.25;;;;;;;;5133967;27;10451;-69
2022/01/14 16:24:12;;;;;;;;;25.00;25.00;;;;;;;;5121551;27;11656;-69
2022/01/14 16:26:37;;;;;;;;;22.00;20.25;;;;;;;;5124780;27;11852;-75
2022/01/14 16:29:03;;;;;;;;;21.50;17.50;;;;;;;;5131018;27;12867;-73
2022/01/14 16:31:29;;;;;;;;;17.25;12.50;;;;;;;;5130727;27;12285;-73
2022/01/14 16:33:54;;;;;;;;;15.50;14.00;;;;;;;;5127765;27;12408;-73
2022/01/14 16:36:19;;;;;;;;;12.25;10.50;;;;;;;;5129243;27;11463;-71
2022/01/14 16:38:44;;;;;;;;;20.50;16.25;;;;;;;;5128947;27;11925;-72
2022/01/14 16:41:10;;;;;;;;;21.00;17.00;;;;;;;;5126928;27;13581;-73
2022/01/14 16:43:36;;;;;;;;;25.00;20.00;;;;;;;;5128398;27;11803;-72
2022/01/14 16:46:02;;;;;;;;;21.67;18.33;;;;;;;;5109532;27;11775;-73
2022/01/14 16:48:28;;;;;;;;;21.25;20.00;;;;;;;;5111396;27;15311;-73
2022/01/14 16:50:53;;;;;;;;;23.67;23.00;;;;;;;;5127763;27;12645;-73
2022/01/14 16:53:18;;;;;;;;;27.33;21.67;;;;;;;;5109957;27;12667;-72
2022/01/14 16:55:44;;;;;;;;;20.50;20.00;;;;;;;;5133930;27;11509;-72
2022/01/14 16:58:11;;;;;;;;;28.00;21.50;;;;;;;;5130293;27;11924;-72
2022/01/14 17:00:37;;;;;;;;;25.33;24.00;;;;;;;;5128920;27;11511;-73
2022/01/14 17:03:02;;;;;;;;;24.67;21.00;;;;;;;;5130108;27;11526;-73
2022/01/14 17:05:28;;;;;;;;;25.67;21.67;;;;;;;;5129213;27;11468;-72
2022/01/14 17:07:53;;;;;;;;;25.33;22.33;;;;;;;;5111379;27;13735;-72
2022/01/14 17:10:18;;;;;;;;;20.33;16.67;;;;;;;;5128081;27;10424;-73
2022/01/14 17:12:45;;;;;;;;;28.33;24.33;;;;;;;;5131096;27;13414;-71
2022/01/14 17:15:11;;;;;;;;;29.00;19.00;;;;;;;;5112014;27;15603;-72
2022/01/14 17:17:37;;;;;;;;;29.00;23.67;;;;;;;;5128269;27;12340;-73
2022/01/14 17:20:04;;;;;;;;;17.00;15.00;;;;;;;;5130588;27;12350;-72
2022/01/14 17:22:29;;;;;;;;;30.67;23.33;;;;;;;;5129746;27;13376;-73
2022/01/14 17:24:54;;;;;;;;;24.67;23.00;;;;;;;;5128253;27;14696;-73
2022/01/14 17:27:20;;;;;;;;;31.67;27.33;;;;;;;;5111128;27;14997;-73
2022/01/14 17:29:45;;;;;;;;;36.00;29.33;;;;;;;;5129761;27;13200;-73
2022/01/14 17:32:10;;;;;;;;;34.67;28.00;;;;;;;;5128307;27;11522;-73
2022/01/14 17:34:36;;;;;;;;;33.67;28.67;;;;;;;;5130195;27;11427;-73
2022/01/14 17:37:01;;;;;;;;;31.33;28.67;;;;;;;;5109900;27;11897;-73
2022/01/14 17:39:26;;;;;;;;;20.67;18.67;;;;;;;;5129592;27;9281;-73
2022/01/14 17:41:52;;;;;;;;;26.33;23.33;;;;;;;;5131008;27;12194;-72
2022/01/14 17:44:19;;;;;;;;;24.00;23.33;;;;;;;;5137408;27;13550;-74
2022/01/14 17:46:45;;;;;;;;;20.00;16.67;;;;;;;;5140852;27;9190;-69
2022/01/14 17:49:11;;;;;;;;;23.33;21.33;;;;;;;;5139744;27;12322;-71
2022/01/14 17:51:37;;;;;;;;;22.67;20.67;;;;;;;;5139442;27;12203;-67
2022/01/14 17:54:02;;;;;;;;;46.00;35.00;;;;;;;;5140488;27;11631;-67
2022/01/14 17:56:28;;;;;;;;;27.33;24.67;;;;;;;;5140014;27;13398;-67
2022/01/14 17:58:54;;;;;;;;;27.00;22.33;;;;;;;;5141547;27;13321;-67
2022/01/14 18:01:19;;;;;;;;;24.00;22.33;;;;;;;;5143427;27;11461;-69
2022/01/14 18:03:44;;;;;;;;;26.33;26.00;;;;;;;;5143709;27;8774;-68
2022/01/14 18:06:10;;;;;;;;;26.67;24.00;;;;;;;;5143312;27;11603;-69
2022/01/14 18:08:35;;;;;;;;;26.67;24.00;;;;;;;;5124989;27;9870;-69
2022/01/14 18:11:00;;;;;;;;;33.00;28.00;;;;;;;;5143881;27;8814;-69
2022/01/14 18:13:37;;;;;;;;;29.33;28.00;;;;;;;;5143450;27;12222;-70
2022/01/14 18:16:02;;;;;;;;;30.00;27.33;;;;;;;;5143720;27;8774;-68
2022/01/14 18:18:28;;;;;;;;;33.67;28.67;;;;;;;;5144713;27;13535;-69
2022/01/14 18:20:53;;;;;;;;;35.33;30.67;;;;;;;;5151677;27;11695;-69
2022/01/14 18:23:20;;;;;;;;;33.33;29.67;;;;;;;;5153667;27;11369;-68
2022/01/14 18:25:45;;;;;;;;;36.00;33.33;;;;;;;;5151674;27;9126;-68
2022/01/14 18:28:11;;;;;;;;;41.33;31.00;;;;;;;;5151821;27;12462;-68
2022/01/14 18:30:37;;;;;;;;;40.33;33.00;;;;;;;;5149697;27;13461;-68
2022/01/14 18:33:02;;;;;;;;;35.33;34.00;;;;;;;;5150733;27;8885;-69
2022/01/14 18:35:27;;;;;;;;;41.00;32.67;;;;;;;;5151703;27;10874;-68
2022/01/14 18:37:53;;;;;;;;;40.00;36.33;;;;;;;;5147505;27;13231;-68
2022/01/14 18:40:18;;;;;;;;;38.67;30.67;;;;;;;;5149341;27;11626;-68
2022/01/14 18:42:45;;;;;;;;;40.67;33.67;;;;;;;;5148416;27;13520;-70
2022/01/14 18:45:12;;;;;;;;;30.33;30.33;;;;;;;;5153378;27;10445;-68
2022/01/14 18:47:37;;;;;;;;;38.33;38.00;;;;;;;;5151671;27;13580;-68
2022/01/14 18:50:03;;;;;;;;;35.33;32.33;;;;;;;;5146671;27;11542;-68
2022/01/14 18:52:29;;;;;;;;;41.67;37.67;;;;;;;;5149673;27;11534;-74
2022/01/14 18:54:54;;;;;;;;;42.00;35.33;;;;;;;;5132903;27;13954;-71
2022/01/14 18:57:20;;;;;;;;;35.67;29.33;;;;;;;;5152512;27;11434;-70
2022/01/14 18:59:45;;;;;;;;;42.00;34.00;;;;;;;;5152146;27;12210;-72
2022/01/14 19:02:10;;;;;;;;;37.00;34.67;;;;;;;;5151712;27;13848;-72
2022/01/14 19:04:36;;;;;;;;;42.67;32.33;;;;;;;;5144263;27;13401;-71
2022/01/14 19:07:02;;;;;;;;;33.67;31.33;;;;;;;;5146158;27;14722;-69
2022/01/14 19:09:27;;;;;;;;;39.67;33.67;;;;;;;;5146015;27;11569;-71
2022/01/14 19:11:55;;;;;;;;;42.67;38.67;;;;;;;;5146996;27;11391;-71
2022/01/14 19:14:20;;;;;;;;;52.00;41.33;;;;;;;;5133999;27;10141;-68
2022/01/14 19:16:45;;;;;;;;;43.67;36.00;;;;;;;;5149700;27;13569;-71
2022/01/14 19:19:11;;;;;;;;;35.33;34.67;;;;;;;;5143644;27;13228;-67
2022/01/14 19:21:37;;;;;;;;;43.00;35.67;;;;;;;;5150108;27;13303;-67
2022/01/14 19:24:03;;;;;;;;;44.67;42.33;;;;;;;;5151772;27;12480;-67
2022/01/14 19:26:29;;;;;;;;;42.33;37.67;;;;;;;;5152091;27;12550;-67
2022/01/14 19:28:54;;;;;;;;;43.00;39.00;;;;;;;;5149966;27;12435;-67
2022/01/14 19:31:19;;;;;;;;;42.33;36.00;;;;;;;;5152590;27;11593;-67
2022/01/14 19:33:51;;;;;;;;;44.00;36.33;;;;;;;;5150440;27;10346;-67
2022/01/14 19:36:16;;;;;;;;;40.33;33.33;;;;;;;;5152187;27;11484;-67
2022/01/14 19:38:42;;;;;;;;;36.33;32.33;;;;;;;;5150161;27;11034;-69
2022/01/14 19:41:07;;;;;;;;;36.00;35.00;;;;;;;;5150081;27;10605;-67
2022/01/14 19:43:34;;;;;;;;;42.33;40.00;;;;;;;;5147017;27;10347;-67
2022/01/14 19:45:59;;;;;;;;;50.33;41.67;;;;;;;;5152734;27;12378;-68
2022/01/14 19:48:25;;;;;;;;;42.33;40.00;;;;;;;;5150752;27;14436;-68
2022/01/14 19:50:51;;;;;;;;;46.67;42.00;;;;;;;;5150160;27;13375;-68
2022/01/14 19:53:16;;;;;;;;;52.33;43.00;;;;;;;;5152022;27;10353;-68
2022/01/14 19:55:41;;;;;;;;;49.00;42.33;;;;;;;;5150436;27;13428;-68
2022/01/14 19:58:07;;;;;;;;;60.33;45.67;;;;;;;;5150794;27;13257;-68
2022/01/14 20:00:35;;;;;;;;;47.33;43.67;;;;;;;;5151596;27;13227;-68
2022/01/14 20:03:02;;;;;;;;;55.67;45.33;;;;;;;;5146697;27;10555;-68
2022/01/14 20:05:31;;;;;;;;;43.67;39.67;;;;;;;;5151979;27;13322;-68
2022/01/14 20:07:57;;;;;;;;;57.33;42.33;;;;;;;;5150656;27;13356;-67
2022/01/14 20:10:23;;;;;;;;;40.00;36.67;;;;;;;;5149647;27;13560;-69
2022/01/14 20:12:48;;;;;;;;;49.33;44.33;;;;;;;;5142406;27;13297;-68
2022/01/14 20:15:14;;;;;;;;;51.33;42.00;;;;;;;;5134614;27;12227;-68
2022/01/14 20:17:40;;;;;;;;;54.67;42.67;;;;;;;;5134356;27;13366;-68
2022/01/14 20:20:07;;;;;;;;;55.67;44.33;;;;;;;;5129065;27;11402;-68
2022/01/14 20:22:33;;;;;;;;;58.67;46.67;;;;;;;;5127204;27;12079;-69
2022/01/14 20:24:58;;;;;;;;;54.67;42.00;;;;;;;;5130893;27;11391;-69
2022/01/14 20:27:23;;;;;;;;;54.67;44.67;;;;;;;;5130107;27;11596;-70
2022/01/14 20:29:51;;;;;;;;;52.00;45.00;;;;;;;;5129181;27;8874;-69
2022/01/14 20:32:16;;;;;;;;;56.67;49.00;;;;;;;;5130765;27;11466;-69
2022/01/14 20:34:43;;;;;;;;;46.00;42.00;;;;;;;;5128558;27;10724;-68
2022/01/14 20:37:09;;;;;;;;;56.67;46.67;;;;;;;;5128888;27;12446;-68
2022/01/14 20:39:34;;;;;;;;;63.25;51.50;;;;;;;;5128373;27;13627;-68
2022/01/14 20:42:04;;;;;;;;;53.00;47.33;;;;;;;;5131338;27;13288;-68
2022/01/14 20:44:31;;;;;;;;;58.33;46.67;;;;;;;;5129352;27;13326;-68
2022/01/14 20:46:56;;;;;;;;;60.25;48.25;;;;;;;;5127737;27;11460;-69
2022/01/14 20:49:21;;;;;;;;;54.00;47.00;;;;;;;;5118876;28;13297;-71
2022/01/14 20:51:46;;;;;;;;;59.67;47.00;;;;;;;;5122545;27;15255;-72
2022/01/14 20:54:12;;;;;;;;;54.00;46.33;;;;;;;;5141192;27;9149;-72
2022/01/14 20:56:37;;;;;;;;;48.33;44.33;;;;;;;;5141459;27;13228;-72
2022/01/14 20:59:04;;;;;;;;;64.67;47.00;;;;;;;;5141270;27;12255;-72
2022/01/14 21:01:29;;;;;;;;;62.00;46.67;;;;;;;;5140914;27;13308;-72
2022/01/14 21:03:56;;;;;;;;;52.00;46.00;;;;;;;;5140990;27;11905;-72
2022/01/14 21:06:21;;;;;;;;;51.00;44.67;;;;;;;;5140316;27;14815;-72
2022/01/14 21:08:46;;;;;;;;;43.33;37.33;;;;;;;;5140418;27;11697;-73
2022/01/14 21:11:12;;;;;;;;;50.33;45.33;;;;;;;;5141359;27;13229;-73
2022/01/14 21:13:37;;;;;;;;;53.00;43.00;;;;;;;;5141410;27;10355;-71
2022/01/14 21:16:03;;;;;;;;;44.33;41.00;;;;;;;;5141243;27;11439;-71
2022/01/14 21:18:28;;;;;;;;;48.25;40.75;;;;;;;;5141244;27;12456;-71
2022/01/14 21:20:56;;;;;;;;;55.00;45.75;;;;;;;;5140483;27;11568;-72
2022/01/14 21:23:25;;;;;;;;;54.50;46.25;;;;;;;;5140432;27;12478;-73
2022/01/14 21:25:50;;;;;;;;;58.00;47.00;;;;;;;;5141048;27;10447;-73
2022/01/14 21:28:16;;;;;;;;;52.25;46.25;;;;;;;;5140181;27;11505;-72
2022/01/14 21:30:41;;;;;;;;;54.50;45.75;;;;;;;;5140441;27;11942;-72
2022/01/14 21:33:06;;;;;;;;;51.25;46.00;;;;;;;;5140110;27;11063;-72
2022/01/14 21:35:32;;;;;;;;;44.25;42.75;;;;;;;;5139475;27;12783;-72
2022/01/14 21:37:57;;;;;;;;;60.75;49.75;;;;;;;;5140986;27;14770;-73
2022/01/14 21:40:23;;;;;;;;;46.25;42.00;;;;;;;;5133789;27;11476;-73
2022/01/14 21:42:49;;;;;;;;;52.75;43.00;;;;;;;;5138481;27;14181;-72
2022/01/14 21:45:15;;;;;;;;;48.50;44.00;;;;;;;;5154100;27;11489;-73
2022/01/14 21:47:40;;;;;;;;;57.75;46.75;;;;;;;;5138165;27;12460;-72
2022/01/14 21:50:07;;;;;;;;;58.25;47.00;;;;;;;;5138131;27;13264;-71
2022/01/14 21:52:33;;;;;;;;;52.00;43.75;;;;;;;;5121351;27;13074;-72
2022/01/14 21:54:58;;;;;;;;;51.75;45.50;;;;;;;;5140723;27;11646;-72
2022/01/14 21:57:28;;;;;;;;;50.00;43.50;;;;;;;;5140502;27;11789;-72
2022/01/14 21:59:53;;;;;;;;;50.50;44.00;;;;;;;;5121869;27;10803;-77
2022/01/14 22:02:19;;;;;;;;;57.75;45.50;;;;;;;;5140399;27;11382;-71
2022/01/14 22:04:44;;;;;;;;;56.75;46.25;;;;;;;;5139830;27;11400;-71
2022/01/14 22:07:09;;;;;;;;;50.75;46.25;;;;;;;;5139947;27;11635;-71
2022/01/14 22:09:34;;;;;;;;;46.50;43.50;;;;;;;;5123809;27;8819;-72
2022/01/14 22:12:01;;;;;;;;;58.00;48.00;;;;;;;;5161224;27;14379;-71
2022/01/14 22:14:29;;;;;;;;;46.75;43.00;;;;;;;;5160571;27;13309;-71
2022/01/14 22:16:57;;;;;;;;;50.25;44.50;;;;;;;;5160886;27;12291;-73
2022/01/14 22:19:22;;;;;;;;;47.75;43.75;;;;;;;;5160313;27;13502;-71
2022/01/14 22:21:48;;;;;;;;;50.75;43.00;;;;;;;;5150370;27;13878;-71
2022/01/14 22:24:14;;;;;;;;;46.50;41.50;;;;;;;;5142733;27;13238;-71
2022/01/14 22:26:39;;;;;;;;;50.25;39.50;;;;;;;;5140395;27;14308;-71
2022/01/14 22:29:04;;;;;;;;;52.50;41.50;;;;;;;;5139484;27;12419;-71
2022/01/14 22:31:30;;;;;;;;;51.75;44.00;;;;;;;;5140163;27;11372;-71
2022/01/14 22:33:56;;;;;;;;;46.50;39.00;;;;;;;;5139684;27;11384;-71
2022/01/14 22:36:21;;;;;;;;;41.25;37.75;;;;;;;;5139378;27;12546;-71
2022/01/14 22:38:46;;;;;;;;;39.00;35.67;;;;;;;;5138809;27;11369;-71
2022/01/14 22:41:13;;;;;;;;;41.50;40.00;;;;;;;;5139708;27;13259;-71
2022/01/14 22:43:38;;;;;;;;;41.75;39.25;;;;;;;;5139962;27;14066;-70
2022/01/14 22:46:04;;;;;;;;;44.75;41.00;;;;;;;;5143372;27;12180;-71
2022/01/14 22:48:29;;;;;;;;;50.75;44.25;;;;;;;;5141476;27;15554;-72
2022/01/14 22:50:54;;;;;;;;;50.50;44.00;;;;;;;;5143056;27;13290;-75
2022/01/14 22:53:20;;;;;;;;;42.50;37.50;;;;;;;;5143878;27;8808;-72
2022/01/14 22:55:45;;;;;;;;;42.00;40.50;;;;;;;;5142943;27;14270;-72
2022/01/14 22:58:11;;;;;;;;;41.75;38.25;;;;;;;;5141659;27;11731;-70
2022/01/14 23:00:37;;;;;;;;;37.00;34.50;;;;;;;;5142388;27;12435;-72
2022/01/14 23:03:03;;;;;;;;;51.50;41.00;;;;;;;;5142159;27;13684;-72
2022/01/14 23:05:29;;;;;;;;;49.00;38.00;;;;;;;;5142757;27;14841;-72
2022/01/14 23:07:54;;;;;;;;;46.00;42.50;;;;;;;;5143092;27;12536;-72
2022/01/14 23:10:20;;;;;;;;;48.00;42.75;;;;;;;;5142744;27;12199;-73
2022/01/14 23:12:46;;;;;;;;;45.75;40.50;;;;;;;;5142759;27;11468;-71
2022/01/14 23:15:12;;;;;;;;;44.50;39.25;;;;;;;;5143066;27;11939;-71
2022/01/14 23:17:38;;;;;;;;;46.75;34.75;;;;;;;;5142175;27;12422;-72
2022/01/14 23:20:04;;;;;;;;;46.25;37.75;;;;;;;;5142527;27;10850;-72
2022/01/14 23:22:30;;;;;;;;;36.33;31.67;;;;;;;;5143764;27;9746;-73
2022/01/14 23:24:55;;;;;;;;;50.75;41.50;;;;;;;;5142831;27;13281;-72
2022/01/14 23:27:20;;;;;;;;;43.25;40.00;;;;;;;;5142918;27;13226;-73
2022/01/14 23:29:46;;;;;;;;;54.00;47.25;;;;;;;;5143021;27;13382;-72
2022/01/14 23:32:11;;;;;;;;;40.75;37.00;;;;;;;;5142590;27;13402;-72
2022/01/14 23:34:37;;;;;;;;;52.75;45.75;;;;;;;;5142469;27;13289;-72
2022/01/14 23:37:02;;;;;;;;;57.75;43.75;;;;;;;;5142244;27;13294;-71
2022/01/14 23:39:27;;;;;;;;;49.00;40.00;;;;;;;;5142334;27;9524;-72
2022/01/14 23:41:52;;;;;;;;;60.25;47.50;;;;;;;;5142131;27;13225;-72
2022/01/14 23:44:34;;;;;;;;;55.75;43.50;;;;;;;;5142119;27;14868;-72
2022/01/14 23:49:29;;;;;;;;;51.50;43.75;;;;;;;;5142548;27;13242;-72
2022/01/14 23:51:56;;;;;;;;;42.75;38.50;;;;;;;;5141161;27;13676;-72
2022/01/14 23:54:21;;;;;;;;;43.00;36.75;;;;;;;;5142429;27;13485;-71
2022/01/14 23:56:48;;;;;;;;;46.50;44.25;;;;;;;;5142205;27;12595;-71
2022/01/14 23:59:13;;;;;;;;;47.00;42.50;;;;;;;;5142713;27;11972;-72
